createdAt,value
2019-06-01T00:01:57.543Z,15.10
2019-06-01T00:04:24.779Z,15.10
2019-06-01T00:06:51.990Z,15.10
2019-06-01T00:09:19.245Z,15.00
2019-06-01T00:11:47.513Z,15.00
2019-06-01T00:14:14.886Z,14.90
2019-06-01T00:16:42.133Z,14.80
2019-06-01T00:19:09.419Z,14.80
2019-06-01T00:21:36.622Z,14.80
2019-06-01T00:24:03.929Z,14.70
2019-06-01T00:26:31.235Z,14.70
2019-06-01T00:28:58.422Z,14.70
2019-06-01T00:31:25.638Z,14.70
2019-06-01T00:33:52.936Z,14.70
2019-06-01T00:36:20.264Z,14.60
2019-06-01T00:38:47.826Z,14.60
2019-06-01T00:41:15.266Z,14.60
2019-06-01T00:43:42.537Z,14.60
2019-06-01T00:46:09.765Z,14.50
2019-06-01T00:48:36.937Z,14.40
2019-06-01T00:51:04.142Z,14.40
2019-06-01T00:53:31.355Z,14.40
2019-06-01T00:55:58.560Z,14.30
2019-06-01T00:58:25.768Z,14.30
2019-06-01T01:00:53.779Z,14.30
2019-06-01T01:03:22.121Z,14.20
2019-06-01T01:05:50.642Z,14.20
2019-06-01T01:08:18.014Z,14.20
2019-06-01T01:10:45.216Z,14.10
2019-06-01T01:13:15.406Z,14.10
2019-06-01T01:15:42.673Z,14.10
2019-06-01T01:18:10.094Z,14.10
2019-06-01T01:20:37.433Z,14.00
2019-06-01T01:23:05.151Z,14.00
2019-06-01T01:25:32.379Z,14.00
2019-06-01T01:27:59.681Z,14.00
2019-06-01T01:30:27.046Z,14.00
2019-06-01T01:32:55.673Z,13.90
2019-06-01T01:35:23.042Z,13.90
2019-06-01T01:37:50.265Z,13.90
2019-06-01T01:40:17.561Z,13.80
2019-06-01T01:42:44.861Z,13.80
2019-06-01T01:45:12.589Z,13.80
2019-06-01T01:47:39.871Z,13.70
2019-06-01T01:50:07.686Z,13.70
2019-06-01T01:52:34.885Z,13.70
2019-06-01T01:55:03.240Z,13.70
2019-06-01T01:57:30.722Z,13.70
2019-06-01T01:59:57.919Z,13.60
2019-06-01T02:02:25.244Z,13.70
2019-06-01T02:04:53.619Z,13.60
2019-06-01T02:07:20.965Z,13.60
2019-06-01T02:09:48.161Z,13.60
2019-06-01T02:12:15.397Z,13.60
2019-06-01T02:14:42.767Z,13.50
2019-06-01T02:17:09.984Z,13.50
2019-06-01T02:19:37.178Z,13.50
2019-06-01T02:22:04.468Z,13.50
2019-06-01T02:24:31.819Z,13.40
2019-06-01T02:26:59.356Z,13.40
2019-06-01T02:29:26.689Z,13.40
2019-06-01T02:31:54.705Z,13.40
2019-06-01T02:34:22.035Z,13.40
2019-06-01T02:36:49.243Z,13.40
2019-06-01T02:39:16.853Z,13.40
2019-06-01T02:41:44.264Z,13.30
2019-06-01T02:44:11.458Z,13.30
2019-06-01T02:46:38.662Z,13.30
2019-06-01T02:49:06.381Z,13.30
2019-06-01T02:51:33.893Z,13.20
2019-06-01T02:54:01.711Z,13.20
2019-06-01T02:56:28.985Z,13.20
2019-06-01T02:58:56.285Z,13.20
2019-06-01T03:01:32.319Z,13.20
2019-06-01T03:04:01.238Z,13.20
2019-06-01T03:06:30.621Z,13.10
2019-06-01T03:08:59.955Z,13.10
2019-06-01T03:11:31.605Z,13.10
2019-06-01T03:14:00.384Z,13.10
2019-06-01T03:16:28.800Z,13.10
2019-06-01T03:18:59.701Z,13.10
2019-06-01T03:21:32.508Z,13.10
2019-06-01T03:24:08.359Z,13.00
2019-06-01T03:26:41.176Z,13.00
2019-06-01T03:29:12.680Z,13.00
2019-06-01T03:31:40.026Z,13.00
2019-06-01T03:34:09.337Z,13.00
2019-06-01T03:36:36.545Z,13.00
2019-06-01T03:39:06.091Z,12.90
2019-06-01T03:41:33.617Z,12.90
2019-06-01T03:44:00.941Z,13.00
2019-06-01T03:46:28.337Z,13.00
2019-06-01T03:48:55.549Z,13.00
2019-06-01T03:51:22.845Z,13.00
2019-06-01T03:53:50.164Z,13.00
2019-06-01T03:56:17.465Z,13.10
2019-06-01T03:58:44.781Z,13.10
2019-06-01T04:01:12.083Z,13.10
2019-06-01T04:03:39.285Z,13.20
2019-06-01T04:06:07.359Z,13.20
2019-06-01T04:08:34.840Z,13.20
2019-06-01T04:11:03.432Z,13.20
2019-06-01T04:13:30.797Z,13.20
2019-06-01T04:15:58.036Z,13.20
2019-06-01T04:18:25.355Z,13.20
2019-06-01T04:20:52.573Z,13.30
2019-06-01T04:23:19.945Z,13.30
2019-06-01T04:25:47.276Z,13.30
2019-06-01T04:28:14.498Z,13.40
2019-06-01T04:30:41.809Z,13.50
2019-06-01T04:33:09.040Z,13.50
2019-06-01T04:35:36.381Z,13.50
2019-06-01T04:38:05.001Z,13.50
2019-06-01T04:40:32.446Z,13.50
2019-06-01T04:42:59.647Z,13.60
2019-06-01T04:45:26.960Z,13.60
2019-06-01T04:47:54.143Z,13.60
2019-06-01T04:50:21.455Z,13.60
2019-06-01T04:52:48.754Z,13.60
2019-06-01T04:55:16.081Z,13.70
2019-06-01T04:57:43.376Z,13.70
2019-06-01T05:00:24.249Z,13.80
2019-06-01T05:02:40.314Z,13.90
2019-06-01T05:05:09.173Z,14.00
2019-06-01T05:07:36.937Z,14.00
2019-06-01T05:10:05.157Z,14.10
2019-06-01T05:12:32.556Z,14.20
2019-06-01T05:14:59.856Z,14.30
2019-06-01T05:17:27.161Z,14.40
2019-06-01T05:19:54.467Z,14.40
2019-06-01T05:22:21.757Z,14.50
2019-06-01T05:24:49.059Z,14.50
2019-06-01T05:27:17.362Z,14.60
2019-06-01T05:29:44.786Z,14.60
2019-06-01T05:32:12.594Z,14.70
2019-06-01T05:34:39.914Z,14.80
2019-06-01T05:37:08.413Z,14.90
2019-06-01T05:39:35.845Z,14.90
2019-06-01T05:42:03.084Z,15.00
2019-06-01T05:44:30.395Z,15.10
2019-06-01T05:46:57.712Z,15.10
2019-06-01T05:49:25.005Z,15.20
2019-06-01T05:51:52.213Z,15.30
2019-06-01T05:54:19.504Z,15.30
2019-06-01T05:56:46.716Z,15.40
2019-06-01T05:59:13.971Z,15.40
2019-06-01T06:01:41.243Z,15.40
2019-06-01T06:04:08.541Z,15.50
2019-06-01T06:06:35.749Z,15.60
2019-06-01T06:09:04.670Z,15.70
2019-06-01T06:11:31.998Z,15.70
2019-06-01T06:13:59.224Z,15.90
2019-06-01T06:16:26.620Z,15.90
2019-06-01T06:18:53.831Z,16.00
2019-06-01T06:21:22.292Z,16.10
2019-06-01T06:23:49.704Z,16.20
2019-06-01T06:26:18.668Z,16.20
2019-06-01T06:28:46.238Z,16.30
2019-06-01T06:31:13.432Z,16.40
2019-06-01T06:33:55.467Z,16.60
2019-06-01T06:36:09.966Z,16.70
2019-06-01T06:38:37.297Z,16.70
2019-06-01T06:41:04.478Z,16.90
2019-06-01T06:43:33.279Z,17.00
2019-06-01T06:46:00.754Z,17.10
2019-06-01T06:48:28.059Z,17.20
2019-06-01T06:50:55.386Z,17.20
2019-06-01T06:53:32.635Z,17.30
2019-06-01T06:55:51.978Z,17.40
2019-06-01T06:58:20.923Z,17.50
2019-06-01T07:00:48.306Z,17.60
2019-06-01T07:03:16.596Z,17.60
2019-06-01T07:05:44.278Z,17.80
2019-06-01T07:08:11.837Z,17.90
2019-06-01T07:10:39.133Z,18.00
2019-06-01T07:13:06.461Z,18.10
2019-06-01T07:15:33.669Z,18.20
2019-06-01T07:18:00.949Z,18.30
2019-06-01T07:20:28.198Z,18.40
2019-06-01T07:22:55.696Z,18.50
2019-06-01T07:25:23.085Z,18.60
2019-06-01T07:27:50.270Z,18.70
2019-06-01T07:30:17.467Z,18.80
2019-06-01T07:32:44.683Z,18.90
2019-06-01T07:35:11.988Z,19.10
2019-06-01T07:37:39.301Z,19.20
2019-06-01T07:40:07.463Z,19.30
2019-06-01T07:42:36.657Z,19.30
2019-06-01T07:45:04.078Z,19.40
2019-06-01T07:47:31.283Z,19.50
2019-06-01T07:49:58.583Z,19.60
2019-06-01T07:52:26.194Z,19.70
2019-06-01T07:54:53.451Z,19.80
2019-06-01T07:57:21.586Z,20.00
2019-06-01T07:59:49.109Z,20.10
2019-06-01T08:02:16.336Z,20.20
2019-06-01T08:04:53.641Z,20.40
2019-06-01T08:07:12.826Z,20.50
2019-06-01T08:09:40.421Z,20.60
2019-06-01T08:12:07.671Z,20.70
2019-06-01T08:14:34.997Z,20.80
2019-06-01T08:17:02.216Z,20.80
2019-06-01T08:19:30.134Z,20.90
2019-06-01T08:21:57.602Z,21.00
2019-06-01T08:24:26.123Z,21.10
2019-06-01T08:26:53.585Z,21.30
2019-06-01T08:29:20.890Z,21.40
2019-06-01T08:31:48.255Z,21.50
2019-06-01T08:34:15.555Z,21.70
2019-06-01T08:36:42.774Z,21.70
2019-06-01T08:39:10.099Z,21.90
2019-06-01T08:41:37.349Z,22.00
2019-06-01T08:44:04.782Z,22.20
2019-06-01T08:46:32.116Z,22.30
2019-06-01T08:48:59.573Z,22.60
2019-06-01T08:51:28.123Z,22.80
2019-06-01T08:53:55.493Z,23.10
2019-06-01T08:56:24.113Z,23.40
2019-06-01T08:58:51.511Z,23.80
2019-06-01T09:01:18.817Z,24.20
2019-06-01T09:03:47.019Z,24.70
2019-06-01T09:06:14.446Z,25.20
2019-06-01T09:08:41.744Z,26.20
2019-06-01T09:11:08.953Z,27.90
2019-06-01T09:13:36.157Z,29.60
2019-06-01T09:16:03.512Z,31.20
2019-06-01T09:18:31.573Z,32.60
2019-06-01T09:20:58.973Z,33.70
2019-06-01T09:23:27.512Z,34.80
2019-06-01T09:25:54.894Z,35.70
2019-06-01T09:28:22.129Z,36.30
2019-06-01T09:30:49.317Z,36.90
2019-06-01T09:33:16.549Z,37.00
2019-06-01T09:35:54.314Z,37.00
2019-06-01T09:38:12.964Z,37.50
2019-06-01T09:40:40.229Z,37.90
2019-06-01T09:43:07.644Z,38.20
2019-06-01T09:45:36.239Z,38.50
2019-06-01T09:48:03.825Z,39.00
2019-06-01T09:50:31.316Z,39.40
2019-06-01T09:52:58.765Z,39.30
2019-06-01T09:55:26.069Z,39.50
2019-06-01T09:57:53.520Z,39.40
2019-06-01T10:00:20.860Z,38.90
2019-06-01T10:02:48.102Z,39.30
2019-06-01T10:05:15.411Z,39.60
2019-06-01T10:07:42.735Z,39.30
2019-06-01T10:10:10.293Z,38.40
2019-06-01T10:12:38.188Z,37.60
2019-06-01T10:15:08.298Z,37.10
2019-06-01T10:17:36.984Z,37.00
2019-06-01T10:20:05.073Z,37.10
2019-06-01T10:22:33.121Z,37.60
2019-06-01T10:25:00.481Z,37.40
2019-06-01T10:27:27.700Z,37.40
2019-06-01T10:29:54.918Z,37.80
2019-06-01T10:32:22.245Z,38.00
2019-06-01T10:34:49.569Z,38.30
2019-06-01T10:37:16.910Z,38.60
2019-06-01T10:39:44.118Z,38.70
2019-06-01T10:42:11.333Z,39.10
2019-06-01T10:44:43.835Z,39.40
2019-06-01T10:47:07.785Z,39.50
2019-06-01T10:49:35.952Z,39.30
2019-06-01T10:52:03.419Z,39.40
2019-06-01T10:54:32.537Z,39.30
2019-06-01T10:56:59.984Z,39.00
2019-06-01T10:59:27.187Z,38.90
2019-06-01T11:01:54.554Z,39.30
2019-06-01T11:04:21.766Z,39.60
2019-06-01T11:06:49.108Z,39.60
2019-06-01T11:09:16.388Z,39.30
2019-06-01T11:11:43.722Z,38.80
2019-06-01T11:14:11.024Z,38.50
2019-06-01T11:16:39.413Z,37.70
2019-06-01T11:19:06.870Z,36.80
2019-06-01T11:21:35.364Z,36.10
2019-06-01T11:24:03.097Z,36.30
2019-06-01T11:26:30.597Z,35.90
2019-06-01T11:28:58.019Z,36.10
2019-06-01T11:31:25.248Z,36.00
2019-06-01T11:33:52.600Z,35.60
2019-06-01T11:36:20.001Z,35.10
2019-06-01T11:38:47.313Z,34.20
2019-06-01T11:41:18.309Z,33.60
2019-06-01T11:43:45.879Z,32.80
2019-06-01T11:46:12.989Z,32.30
2019-06-01T11:48:41.385Z,31.90
2019-06-01T11:51:08.721Z,31.40
2019-06-01T11:53:37.319Z,30.80
2019-06-01T11:56:05.044Z,30.40
2019-06-01T11:58:32.289Z,30.10
2019-06-01T12:00:59.496Z,29.80
2019-06-01T12:03:26.737Z,29.70
2019-06-01T12:05:54.071Z,29.50
2019-06-01T12:08:21.306Z,29.00
2019-06-01T12:10:48.527Z,28.90
2019-06-01T12:13:15.843Z,28.50
2019-06-01T12:15:44.188Z,28.20
2019-06-01T12:18:11.721Z,27.90
2019-06-01T12:20:38.988Z,27.70
2019-06-01T12:23:06.345Z,27.60
2019-06-01T12:25:33.684Z,27.70
2019-06-01T12:28:00.920Z,27.80
2019-06-01T12:30:28.272Z,28.00
2019-06-01T12:32:55.506Z,28.10
2019-06-01T12:35:22.727Z,28.30
2019-06-01T12:38:05.379Z,28.40
2019-06-01T12:40:19.638Z,28.40
2019-06-01T12:42:47.757Z,28.30
2019-06-01T12:45:22.428Z,28.10
2019-06-01T12:47:52.919Z,28.00
2019-06-01T12:50:16.846Z,28.20
2019-06-01T12:52:44.438Z,28.30
2019-06-01T12:55:11.977Z,28.60
2019-06-01T12:57:39.265Z,28.50
2019-06-01T13:00:07.193Z,28.50
2019-06-01T13:02:34.517Z,28.40
2019-06-01T13:05:02.294Z,28.50
2019-06-01T13:07:29.603Z,28.80
2019-06-01T13:09:58.832Z,29.00
2019-06-01T13:12:26.142Z,29.20
2019-06-01T13:14:53.340Z,29.30
2019-06-01T13:17:20.656Z,29.50
2019-06-01T13:19:47.870Z,29.60
2019-06-01T13:22:15.068Z,29.70
2019-06-01T13:24:43.683Z,29.50
2019-06-01T13:27:11.040Z,29.40
2019-06-01T13:29:38.336Z,29.30
2019-06-01T13:32:05.632Z,29.40
2019-06-01T13:34:34.315Z,29.70
2019-06-01T13:37:01.860Z,29.80
2019-06-01T13:39:29.066Z,29.80
2019-06-01T13:41:56.272Z,29.90
2019-06-01T13:44:23.579Z,30.10
2019-06-01T13:46:51.489Z,30.20
2019-06-01T13:49:18.859Z,30.40
2019-06-01T13:51:46.246Z,30.50
2019-06-01T13:54:13.910Z,30.70
2019-06-01T13:56:41.146Z,30.80
2019-06-01T13:59:08.450Z,30.90
2019-06-01T14:01:36.031Z,30.90
2019-06-01T14:04:03.364Z,30.80
2019-06-01T14:06:30.776Z,30.90
2019-06-01T14:08:58.096Z,30.90
2019-06-01T14:11:25.430Z,30.90
2019-06-01T14:13:52.782Z,31.00
2019-06-01T14:16:20.134Z,30.90
2019-06-01T14:18:47.684Z,30.60
2019-06-01T14:21:14.973Z,30.60
2019-06-01T14:23:42.298Z,30.50
2019-06-01T14:26:09.520Z,30.60
2019-06-01T14:28:36.823Z,30.70
2019-06-01T14:31:04.131Z,30.60
2019-06-01T14:33:31.454Z,30.70
2019-06-01T14:35:58.729Z,30.70
2019-06-01T14:38:26.078Z,30.80
2019-06-01T14:40:53.687Z,30.70
2019-06-01T14:43:21.099Z,30.70
2019-06-01T14:45:49.624Z,30.70
2019-06-01T14:48:16.968Z,30.70
2019-06-01T14:50:44.201Z,30.90
2019-06-01T14:53:11.394Z,30.90
2019-06-01T14:55:38.600Z,30.90
2019-06-01T14:58:05.828Z,30.90
2019-06-01T15:00:33.796Z,30.90
2019-06-01T15:03:01.489Z,31.00
2019-06-01T15:05:28.700Z,31.00
2019-06-01T15:07:57.130Z,31.10
2019-06-01T15:10:24.555Z,31.10
2019-06-01T15:12:56.739Z,31.00
2019-06-01T15:15:21.257Z,31.00
2019-06-01T15:17:49.287Z,31.00
2019-06-01T15:20:16.851Z,31.00
2019-06-01T15:22:44.053Z,30.90
2019-06-01T15:25:12.981Z,31.00
2019-06-01T15:27:40.181Z,30.90
2019-06-01T15:30:08.133Z,30.70
2019-06-01T15:32:35.460Z,30.70
2019-06-01T15:35:03.409Z,30.70
2019-06-01T15:37:30.719Z,30.70
2019-06-01T15:39:58.741Z,30.70
2019-06-01T15:42:26.117Z,30.60
2019-06-01T15:44:53.421Z,30.60
2019-06-01T15:47:20.622Z,30.50
2019-06-01T15:49:47.845Z,30.50
2019-06-01T15:52:15.162Z,30.50
2019-06-01T15:54:42.356Z,30.50
2019-06-01T15:57:09.573Z,30.60
2019-06-01T15:59:37.929Z,30.60
2019-06-01T16:02:05.237Z,30.50
2019-06-01T16:04:32.463Z,30.40
2019-06-01T16:07:01.344Z,30.20
2019-06-01T16:09:42.041Z,30.10
2019-06-01T16:11:59.505Z,30.10
2019-06-01T16:14:26.988Z,30.00
2019-06-01T16:16:55.717Z,29.90
2019-06-01T16:19:23.181Z,29.90
2019-06-01T16:21:50.376Z,29.90
2019-06-01T16:24:17.672Z,29.70
2019-06-01T16:26:44.982Z,29.70
2019-06-01T16:29:12.292Z,29.60
2019-06-01T16:31:39.512Z,29.50
2019-06-01T16:34:06.797Z,29.40
2019-06-01T16:36:34.316Z,29.30
2019-06-01T16:39:04.727Z,29.20
2019-06-01T16:41:30.727Z,29.20
2019-06-01T16:43:58.020Z,29.10
2019-06-01T16:46:25.264Z,29.00
2019-06-01T16:48:52.575Z,28.90
2019-06-01T16:51:19.779Z,28.90
2019-06-01T16:53:47.112Z,28.80
2019-06-01T16:56:14.346Z,28.70
2019-06-01T16:58:41.540Z,28.70
2019-06-01T17:01:08.798Z,28.70
2019-06-01T17:03:36.035Z,28.60
2019-06-01T17:06:04.703Z,28.50
2019-06-01T17:08:32.154Z,28.50
2019-06-01T17:11:00.478Z,28.40
2019-06-01T17:13:27.863Z,28.30
2019-06-01T17:15:55.219Z,28.30
2019-06-01T17:18:22.512Z,28.20
2019-06-01T17:20:50.296Z,28.10
2019-06-01T17:23:27.794Z,28.10
2019-06-01T17:25:46.673Z,28.00
2019-06-01T17:28:14.017Z,28.00
2019-06-01T17:30:41.474Z,28.00
2019-06-01T17:33:08.700Z,27.90
2019-06-01T17:35:36.449Z,27.90
2019-06-01T17:38:05.009Z,27.90
2019-06-01T17:40:37.493Z,27.80
2019-06-01T17:43:03.017Z,27.80
2019-06-01T17:45:30.332Z,27.70
2019-06-01T17:48:11.793Z,27.70
2019-06-01T17:50:26.636Z,27.60
2019-06-01T17:52:53.871Z,27.50
2019-06-01T17:55:34.500Z,27.50
2019-06-01T17:58:03.390Z,27.40
2019-06-01T18:00:31.254Z,27.40
2019-06-01T18:02:58.505Z,27.40
2019-06-01T18:05:25.800Z,27.40
2019-06-01T18:07:53.033Z,27.30
2019-06-01T18:10:21.677Z,27.30
2019-06-01T18:12:49.172Z,27.20
2019-06-01T18:15:16.698Z,27.20
2019-06-01T18:17:44.052Z,27.20
2019-06-01T18:20:12.866Z,27.20
2019-06-01T18:22:40.405Z,27.10
2019-06-01T18:25:08.624Z,27.10
2019-06-01T18:27:36.336Z,27.00
2019-06-01T18:30:04.768Z,27.00
2019-06-01T18:32:32.274Z,26.90
2019-06-01T18:34:59.511Z,26.90
2019-06-01T18:37:26.840Z,26.70
2019-06-01T18:39:54.207Z,26.70
2019-06-01T18:42:25.844Z,26.60
2019-06-01T18:44:53.190Z,26.60
2019-06-01T18:47:31.928Z,26.50
2019-06-01T18:49:49.676Z,26.40
2019-06-01T18:52:17.052Z,26.30
2019-06-01T18:54:44.533Z,26.20
2019-06-01T18:57:19.316Z,26.00
2019-06-01T18:59:41.334Z,25.90
2019-06-01T19:02:08.686Z,25.90
2019-06-01T19:04:36.022Z,25.80
2019-06-01T19:07:03.308Z,25.70
2019-06-01T19:09:31.129Z,25.60
2019-06-01T19:11:58.424Z,25.50
2019-06-01T19:14:25.812Z,25.40
2019-06-01T19:16:53.076Z,25.30
2019-06-01T19:19:20.363Z,25.20
2019-06-01T19:21:47.828Z,25.10
2019-06-01T19:24:15.163Z,25.00
2019-06-01T19:26:42.549Z,24.90
2019-06-01T19:29:10.733Z,24.80
2019-06-01T19:31:38.458Z,24.70
2019-06-01T19:34:06.914Z,24.60
2019-06-01T19:36:35.462Z,24.60
2019-06-01T19:39:05.113Z,24.40
2019-06-01T19:41:44.160Z,24.30
2019-06-01T19:44:01.638Z,24.30
2019-06-01T19:46:28.985Z,24.20
2019-06-01T19:48:56.336Z,24.10
2019-06-01T19:51:23.633Z,24.00
2019-06-01T19:53:50.975Z,23.90
2019-06-01T19:56:20.084Z,23.80
2019-06-01T19:58:47.571Z,23.70
2019-06-01T20:01:16.222Z,23.60
2019-06-01T20:03:43.675Z,23.50
2019-06-01T20:06:11.083Z,23.40
2019-06-01T20:08:38.444Z,23.30
2019-06-01T20:11:05.808Z,23.10
2019-06-01T20:13:33.099Z,23.00
2019-06-01T20:16:00.521Z,22.90
2019-06-01T20:18:27.885Z,22.80
2019-06-01T20:20:55.718Z,22.70
2019-06-01T20:23:23.105Z,22.60
2019-06-01T20:25:50.382Z,22.50
2019-06-01T20:28:17.636Z,22.40
2019-06-01T20:30:44.993Z,22.40
2019-06-01T20:33:13.946Z,22.30
2019-06-01T20:35:41.446Z,22.20
2019-06-01T20:38:08.814Z,22.10
2019-06-01T20:40:36.317Z,22.00
2019-06-01T20:43:03.765Z,22.00
2019-06-01T20:45:31.191Z,21.90
2019-06-01T20:47:58.626Z,21.80
2019-06-01T20:50:25.898Z,21.70
2019-06-01T20:52:53.247Z,21.60
2019-06-01T20:55:21.222Z,21.60
2019-06-01T20:57:48.697Z,21.50
2019-06-01T21:00:16.119Z,21.50
2019-06-01T21:02:43.599Z,21.50
2019-06-01T21:05:11.376Z,21.40
2019-06-01T21:07:38.874Z,21.30
2019-06-01T21:10:06.823Z,21.20
2019-06-01T21:12:44.994Z,21.10
2019-06-01T21:15:04.284Z,21.00
2019-06-01T21:17:31.636Z,21.00
2019-06-01T21:20:04.135Z,20.90
2019-06-01T21:22:28.293Z,20.80
2019-06-01T21:24:55.654Z,20.80
2019-06-01T21:27:23.025Z,20.70
2019-06-01T21:29:50.229Z,20.60
2019-06-01T21:32:17.611Z,20.60
2019-06-01T21:34:44.803Z,20.50
2019-06-01T21:37:12.129Z,20.40
2019-06-01T21:39:39.570Z,20.40
2019-06-01T21:42:06.877Z,20.30
2019-06-01T21:44:34.096Z,20.20
2019-06-01T21:47:01.472Z,20.20
2019-06-01T21:49:28.829Z,20.10
2019-06-01T21:51:56.151Z,20.10
2019-06-01T21:54:24.609Z,20.00
2019-06-01T21:56:51.980Z,20.00
2019-06-01T21:59:20.507Z,19.90
2019-06-01T22:01:47.965Z,19.90
2019-06-01T22:04:15.156Z,19.80
2019-06-01T22:06:46.168Z,19.80
2019-06-01T22:09:11.763Z,19.70
2019-06-01T22:11:39.079Z,19.70
2019-06-01T22:14:06.384Z,19.60
2019-06-01T22:16:33.735Z,19.60
2019-06-01T22:19:00.963Z,19.50
2019-06-01T22:21:28.159Z,19.50
2019-06-01T22:23:55.350Z,19.40
2019-06-01T22:26:23.936Z,19.40
2019-06-01T22:28:51.476Z,19.30
2019-06-01T22:31:20.102Z,19.30
2019-06-01T22:33:47.555Z,19.30
2019-06-01T22:36:14.772Z,19.30
2019-06-01T22:38:41.977Z,19.30
2019-06-01T22:41:09.188Z,19.20
2019-06-01T22:43:45.929Z,19.20
2019-06-01T22:46:05.592Z,19.10
2019-06-01T22:48:33.006Z,19.00
2019-06-01T22:51:00.291Z,19.00
2019-06-01T22:53:28.323Z,19.00
2019-06-01T22:55:55.772Z,18.90
2019-06-01T22:58:23.315Z,18.90
2019-06-01T23:00:50.710Z,18.80
2019-06-01T23:03:17.896Z,18.80
2019-06-01T23:05:45.245Z,18.80
2019-06-01T23:08:12.433Z,18.80
2019-06-01T23:10:39.743Z,18.70
2019-06-01T23:13:06.968Z,18.70
2019-06-01T23:15:34.327Z,18.70
2019-06-01T23:18:01.645Z,18.60
2019-06-01T23:20:29.908Z,18.60
2019-06-01T23:22:57.276Z,18.60
2019-06-01T23:25:24.596Z,18.50
2019-06-01T23:27:51.825Z,18.50
2019-06-01T23:30:19.249Z,18.50
2019-06-01T23:32:46.469Z,18.50
2019-06-01T23:35:13.891Z,18.50
2019-06-01T23:37:41.117Z,18.50
2019-06-01T23:40:08.465Z,18.40
2019-06-01T23:42:35.685Z,18.40
2019-06-01T23:45:03.037Z,18.40
2019-06-01T23:47:31.372Z,18.30
2019-06-01T23:49:58.633Z,18.30
2019-06-01T23:52:25.844Z,18.30
2019-06-01T23:54:53.042Z,18.30
2019-06-01T23:57:20.346Z,18.30
2019-06-01T23:59:47.553Z,18.30
